sensor_id;sensor_type;location;lat;lon;timestamp;P1;durP1;ratioP1;P2;durP2;ratioP2
55150;SDS011;41041;43.162;20.538;2023-03-25T00:01:13;27.73;;;5.68;;
55150;SDS011;41041;43.162;20.538;2023-03-25T00:03:40;15.85;;;6.57;;
55150;SDS011;41041;43.162;20.538;2023-03-25T00:06:07;12.23;;;5.93;;
55150;SDS011;41041;43.162;20.538;2023-03-25T00:08:33;14.65;;;5.72;;
55150;SDS011;41041;43.162;20.538;2023-03-25T00:11:00;9.93;;;4.90;;
55150;SDS011;41041;43.162;20.538;2023-03-25T00:16:12;14.80;;;8.88;;
55150;SDS011;41041;43.162;20.538;2023-03-25T00:18:38;15.43;;;8.85;;
55150;SDS011;41041;43.162;20.538;2023-03-25T00:21:09;18.02;;;7.22;;
55150;SDS011;41041;43.162;20.538;2023-03-25T00:23:35;11.23;;;5.20;;
55150;SDS011;41041;43.162;20.538;2023-03-25T00:26:02;12.20;;;5.18;;
55150;SDS011;41041;43.162;20.538;2023-03-25T00:31:31;19.67;;;6.40;;
55150;SDS011;41041;43.162;20.538;2023-03-25T00:33:58;21.33;;;5.45;;
55150;SDS011;41041;43.162;20.538;2023-03-25T00:36:24;19.13;;;6.43;;
55150;SDS011;41041;43.162;20.538;2023-03-25T00:41:34;19.98;;;7.13;;
55150;SDS011;41041;43.162;20.538;2023-03-25T00:44:01;15.38;;;8.05;;
55150;SDS011;41041;43.162;20.538;2023-03-25T00:46:28;18.13;;;9.15;;
55150;SDS011;41041;43.162;20.538;2023-03-25T00:48:55;37.20;;;8.23;;
55150;SDS011;41041;43.162;20.538;2023-03-25T00:51:24;14.07;;;6.32;;
55150;SDS011;41041;43.162;20.538;2023-03-25T00:53:51;10.10;;;5.68;;
55150;SDS011;41041;43.162;20.538;2023-03-25T00:56:22;9.02;;;4.85;;
55150;SDS011;41041;43.162;20.538;2023-03-25T00:58:48;7.10;;;4.03;;
55150;SDS011;41041;43.162;20.538;2023-03-25T01:01:23;11.02;;;4.25;;
55150;SDS011;41041;43.162;20.538;2023-03-25T01:03:53;10.32;;;5.07;;
55150;SDS011;41041;43.162;20.538;2023-03-25T01:06:22;25.17;;;5.55;;
55150;SDS011;41041;43.162;20.538;2023-03-25T01:08:50;11.32;;;4.97;;
55150;SDS011;41041;43.162;20.538;2023-03-25T01:11:33;10.52;;;5.22;;
55150;SDS011;41041;43.162;20.538;2023-03-25T01:14:02;12.85;;;6.68;;
55150;SDS011;41041;43.162;20.538;2023-03-25T01:16:28;14.43;;;6.65;;
55150;SDS011;41041;43.162;20.538;2023-03-25T01:18:55;8.73;;;4.80;;
55150;SDS011;41041;43.162;20.538;2023-03-25T01:21:21;11.65;;;5.28;;
55150;SDS011;41041;43.162;20.538;2023-03-25T01:23:47;8.90;;;5.32;;
55150;SDS011;41041;43.162;20.538;2023-03-25T01:26:13;7.78;;;4.18;;
55150;SDS011;41041;43.162;20.538;2023-03-25T01:28:42;9.45;;;4.78;;
55150;SDS011;41041;43.162;20.538;2023-03-25T01:31:10;17.65;;;5.82;;
55150;SDS011;41041;43.162;20.538;2023-03-25T01:33:41;12.65;;;5.43;;
55150;SDS011;41041;43.162;20.538;2023-03-25T01:36:07;9.57;;;5.30;;
55150;SDS011;41041;43.162;20.538;2023-03-25T01:41:29;13.65;;;5.88;;
55150;SDS011;41041;43.162;20.538;2023-03-25T01:46:32;14.30;;;7.00;;
55150;SDS011;41041;43.162;20.538;2023-03-25T01:48:58;11.15;;;6.05;;
55150;SDS011;41041;43.162;20.538;2023-03-25T01:51:28;17.25;;;7.40;;
55150;SDS011;41041;43.162;20.538;2023-03-25T01:53:58;15.50;;;8.00;;
55150;SDS011;41041;43.162;20.538;2023-03-25T01:56:26;13.43;;;7.93;;
55150;SDS011;41041;43.162;20.538;2023-03-25T01:58:57;19.00;;;11.02;;
55150;SDS011;41041;43.162;20.538;2023-03-25T02:01:24;16.35;;;8.98;;
55150;SDS011;41041;43.162;20.538;2023-03-25T02:03:50;14.57;;;7.72;;
55150;SDS011;41041;43.162;20.538;2023-03-25T02:06:21;16.13;;;8.25;;
55150;SDS011;41041;43.162;20.538;2023-03-25T02:08:53;10.82;;;6.55;;
55150;SDS011;41041;43.162;20.538;2023-03-25T02:11:34;18.42;;;7.38;;
55150;SDS011;41041;43.162;20.538;2023-03-25T02:14:02;19.58;;;7.55;;
55150;SDS011;41041;43.162;20.538;2023-03-25T02:24:57;12.70;;;5.63;;
55150;SDS011;41041;43.162;20.538;2023-03-25T02:30:25;8.30;;;5.38;;
55150;SDS011;41041;43.162;20.538;2023-03-25T02:41:03;9.07;;;5.60;;
55150;SDS011;41041;43.162;20.538;2023-03-25T02:45:59;16.00;;;7.28;;
55150;SDS011;41041;43.162;20.538;2023-03-25T02:48:49;13.23;;;6.15;;
55150;SDS011;41041;43.162;20.538;2023-03-25T02:51:19;13.63;;;6.72;;
55150;SDS011;41041;43.162;20.538;2023-03-25T02:53:47;10.98;;;6.68;;
55150;SDS011;41041;43.162;20.538;2023-03-25T02:56:15;9.13;;;5.70;;
55150;SDS011;41041;43.162;20.538;2023-03-25T02:58:45;9.77;;;5.67;;
55150;SDS011;41041;43.162;20.538;2023-03-25T03:01:11;10.10;;;5.65;;
55150;SDS011;41041;43.162;20.538;2023-03-25T03:03:38;11.82;;;5.53;;
55150;SDS011;41041;43.162;20.538;2023-03-25T03:11:47;10.07;;;4.95;;
55150;SDS011;41041;43.162;20.538;2023-03-25T03:16:54;12.88;;;7.60;;
55150;SDS011;41041;43.162;20.538;2023-03-25T03:27:50;12.55;;;7.13;;
55150;SDS011;41041;43.162;20.538;2023-03-25T03:30:31;19.35;;;7.50;;
55150;SDS011;41041;43.162;20.538;2023-03-25T03:35:47;19.15;;;7.88;;
55150;SDS011;41041;43.162;20.538;2023-03-25T03:41:22;10.65;;;5.93;;
55150;SDS011;41041;43.162;20.538;2023-03-25T03:49:12;10.93;;;6.45;;
55150;SDS011;41041;43.162;20.538;2023-03-25T03:52:00;21.55;;;6.32;;
55150;SDS011;41041;43.162;20.538;2023-03-25T03:54:34;30.45;;;6.82;;
55150;SDS011;41041;43.162;20.538;2023-03-25T03:57:20;12.20;;;7.35;;
55150;SDS011;41041;43.162;20.538;2023-03-25T04:00:06;26.23;;;8.23;;
55150;SDS011;41041;43.162;20.538;2023-03-25T04:02:42;29.80;;;7.13;;
55150;SDS011;41041;43.162;20.538;2023-03-25T04:05:15;16.17;;;7.72;;
55150;SDS011;41041;43.162;20.538;2023-03-25T04:13:01;19.10;;;8.98;;
55150;SDS011;41041;43.162;20.538;2023-03-25T04:15:29;16.52;;;8.48;;
55150;SDS011;41041;43.162;20.538;2023-03-25T04:17:55;15.15;;;8.40;;
55150;SDS011;41041;43.162;20.538;2023-03-25T04:20:24;11.90;;;7.07;;
55150;SDS011;41041;43.162;20.538;2023-03-25T04:22:53;12.13;;;7.38;;
55150;SDS011;41041;43.162;20.538;2023-03-25T04:25:19;13.13;;;7.70;;
55150;SDS011;41041;43.162;20.538;2023-03-25T04:27:46;17.90;;;9.02;;
55150;SDS011;41041;43.162;20.538;2023-03-25T04:30:27;17.88;;;11.05;;
55150;SDS011;41041;43.162;20.538;2023-03-25T04:32:55;15.07;;;9.40;;
55150;SDS011;41041;43.162;20.538;2023-03-25T04:35:21;13.80;;;9.13;;
55150;SDS011;41041;43.162;20.538;2023-03-25T04:37:47;28.85;;;12.60;;
55150;SDS011;41041;43.162;20.538;2023-03-25T04:40:14;19.65;;;11.52;;
55150;SDS011;41041;43.162;20.538;2023-03-25T04:42:43;20.85;;;11.25;;
55150;SDS011;41041;43.162;20.538;2023-03-25T04:45:10;31.13;;;11.82;;
55150;SDS011;41041;43.162;20.538;2023-03-25T04:47:40;24.80;;;11.60;;
55150;SDS011;41041;43.162;20.538;2023-03-25T04:50:19;28.25;;;11.38;;
55150;SDS011;41041;43.162;20.538;2023-03-25T04:52:46;24.02;;;10.70;;
55150;SDS011;41041;43.162;20.538;2023-03-25T04:55:12;22.67;;;11.15;;
55150;SDS011;41041;43.162;20.538;2023-03-25T04:57:44;31.48;;;11.15;;
55150;SDS011;41041;43.162;20.538;2023-03-25T05:00:11;26.02;;;11.57;;
55150;SDS011;41041;43.162;20.538;2023-03-25T05:02:41;23.80;;;12.27;;
55150;SDS011;41041;43.162;20.538;2023-03-25T05:05:09;28.17;;;11.73;;
55150;SDS011;41041;43.162;20.538;2023-03-25T05:07:49;24.58;;;11.57;;
55150;SDS011;41041;43.162;20.538;2023-03-25T05:10:16;20.13;;;10.73;;
55150;SDS011;41041;43.162;20.538;2023-03-25T05:12:42;24.92;;;11.27;;
55150;SDS011;41041;43.162;20.538;2023-03-25T05:15:09;23.67;;;10.00;;
55150;SDS011;41041;43.162;20.538;2023-03-25T05:17:36;25.40;;;9.50;;
55150;SDS011;41041;43.162;20.538;2023-03-25T05:20:02;23.67;;;10.35;;
55150;SDS011;41041;43.162;20.538;2023-03-25T05:22:30;31.30;;;11.77;;
55150;SDS011;41041;43.162;20.538;2023-03-25T05:24:56;40.50;;;14.93;;
55150;SDS011;41041;43.162;20.538;2023-03-25T05:27:22;22.35;;;12.20;;
55150;SDS011;41041;43.162;20.538;2023-03-25T05:29:48;22.65;;;11.88;;
55150;SDS011;41041;43.162;20.538;2023-03-25T05:32:14;38.40;;;18.52;;
55150;SDS011;41041;43.162;20.538;2023-03-25T05:34:43;61.38;;;23.48;;
55150;SDS011;41041;43.162;20.538;2023-03-25T05:37:12;43.58;;;13.50;;
55150;SDS011;41041;43.162;20.538;2023-03-25T05:39:38;35.08;;;12.20;;
55150;SDS011;41041;43.162;20.538;2023-03-25T05:42:04;25.80;;;12.13;;
55150;SDS011;41041;43.162;20.538;2023-03-25T05:44:30;35.13;;;11.27;;
55150;SDS011;41041;43.162;20.538;2023-03-25T05:47:01;36.15;;;12.13;;
55150;SDS011;41041;43.162;20.538;2023-03-25T05:51:53;36.75;;;12.57;;
55150;SDS011;41041;43.162;20.538;2023-03-25T05:54:20;37.40;;;12.85;;
55150;SDS011;41041;43.162;20.538;2023-03-25T05:56:48;30.85;;;12.55;;
55150;SDS011;41041;43.162;20.538;2023-03-25T06:01:44;33.35;;;12.25;;
55150;SDS011;41041;43.162;20.538;2023-03-25T06:04:11;31.15;;;12.50;;
55150;SDS011;41041;43.162;20.538;2023-03-25T06:06:41;25.60;;;12.35;;
55150;SDS011;41041;43.162;20.538;2023-03-25T06:09:07;42.92;;;12.68;;
55150;SDS011;41041;43.162;20.538;2023-03-25T06:11:34;28.42;;;12.52;;
55150;SDS011;41041;43.162;20.538;2023-03-25T06:14:02;41.67;;;12.52;;
55150;SDS011;41041;43.162;20.538;2023-03-25T06:16:28;31.65;;;12.10;;
55150;SDS011;41041;43.162;20.538;2023-03-25T06:18:55;25.25;;;11.60;;
55150;SDS011;41041;43.162;20.538;2023-03-25T06:21:24;33.03;;;11.93;;
55150;SDS011;41041;43.162;20.538;2023-03-25T06:23:53;27.00;;;12.25;;
55150;SDS011;41041;43.162;20.538;2023-03-25T06:26:20;33.17;;;12.10;;
55150;SDS011;41041;43.162;20.538;2023-03-25T06:28:47;41.13;;;14.27;;
55150;SDS011;41041;43.162;20.538;2023-03-25T06:31:13;32.70;;;13.98;;
55150;SDS011;41041;43.162;20.538;2023-03-25T06:36:10;29.02;;;11.85;;
55150;SDS011;41041;43.162;20.538;2023-03-25T06:38:39;36.88;;;13.00;;
55150;SDS011;41041;43.162;20.538;2023-03-25T06:41:05;25.88;;;11.43;;
55150;SDS011;41041;43.162;20.538;2023-03-25T06:43:31;23.77;;;9.18;;
55150;SDS011;41041;43.162;20.538;2023-03-25T06:45:57;33.22;;;8.85;;
55150;SDS011;41041;43.162;20.538;2023-03-25T06:48:23;37.88;;;12.15;;
55150;SDS011;41041;43.162;20.538;2023-03-25T06:50:49;28.65;;;11.68;;
55150;SDS011;41041;43.162;20.538;2023-03-25T06:53:15;19.73;;;11.85;;
55150;SDS011;41041;43.162;20.538;2023-03-25T06:55:41;19.08;;;11.35;;
55150;SDS011;41041;43.162;20.538;2023-03-25T07:00:58;22.67;;;11.60;;
55150;SDS011;41041;43.162;20.538;2023-03-25T07:03:28;20.48;;;10.88;;
55150;SDS011;41041;43.162;20.538;2023-03-25T07:05:54;25.00;;;11.55;;
55150;SDS011;41041;43.162;20.538;2023-03-25T07:08:20;18.23;;;9.95;;
55150;SDS011;41041;43.162;20.538;2023-03-25T07:10:46;20.15;;;10.63;;
55150;SDS011;41041;43.162;20.538;2023-03-25T07:13:12;20.92;;;9.43;;
55150;SDS011;41041;43.162;20.538;2023-03-25T07:15:38;20.20;;;9.65;;
55150;SDS011;41041;43.162;20.538;2023-03-25T07:18:04;18.50;;;7.28;;
55150;SDS011;41041;43.162;20.538;2023-03-25T07:20:30;12.35;;;7.65;;
55150;SDS011;41041;43.162;20.538;2023-03-25T07:22:55;17.77;;;7.82;;
55150;SDS011;41041;43.162;20.538;2023-03-25T07:25:21;30.40;;;7.53;;
55150;SDS011;41041;43.162;20.538;2023-03-25T07:27:47;18.67;;;6.20;;
55150;SDS011;41041;43.162;20.538;2023-03-25T07:30:13;15.82;;;5.88;;
55150;SDS011;41041;43.162;20.538;2023-03-25T07:32:39;15.88;;;5.78;;
55150;SDS011;41041;43.162;20.538;2023-03-25T07:35:05;21.27;;;6.40;;
55150;SDS011;41041;43.162;20.538;2023-03-25T07:37:33;11.90;;;5.25;;
55150;SDS011;41041;43.162;20.538;2023-03-25T07:39:59;13.40;;;6.60;;
55150;SDS011;41041;43.162;20.538;2023-03-25T07:42:25;11.95;;;7.13;;
55150;SDS011;41041;43.162;20.538;2023-03-25T07:44:51;16.70;;;5.40;;
55150;SDS011;41041;43.162;20.538;2023-03-25T07:47:17;22.33;;;5.13;;
55150;SDS011;41041;43.162;20.538;2023-03-25T07:49:43;11.65;;;4.03;;
55150;SDS011;41041;43.162;20.538;2023-03-25T07:52:10;8.70;;;3.70;;
55150;SDS011;41041;43.162;20.538;2023-03-25T07:54:36;19.30;;;5.05;;
55150;SDS011;41041;43.162;20.538;2023-03-25T07:57:02;17.20;;;5.90;;
55150;SDS011;41041;43.162;20.538;2023-03-25T07:59:29;19.65;;;6.00;;
55150;SDS011;41041;43.162;20.538;2023-03-25T08:01:55;15.52;;;5.70;;
55150;SDS011;41041;43.162;20.538;2023-03-25T08:04:21;10.85;;;4.30;;
55150;SDS011;41041;43.162;20.538;2023-03-25T08:06:47;18.40;;;4.32;;
55150;SDS011;41041;43.162;20.538;2023-03-25T08:09:13;25.90;;;5.32;;
55150;SDS011;41041;43.162;20.538;2023-03-25T08:11:39;29.80;;;5.05;;
55150;SDS011;41041;43.162;20.538;2023-03-25T08:14:17;18.10;;;4.78;;
55150;SDS011;41041;43.162;20.538;2023-03-25T08:16:43;15.20;;;3.70;;
55150;SDS011;41041;43.162;20.538;2023-03-25T08:19:09;12.13;;;3.58;;
55150;SDS011;41041;43.162;20.538;2023-03-25T08:21:36;20.85;;;4.53;;
55150;SDS011;41041;43.162;20.538;2023-03-25T08:24:02;8.55;;;3.70;;
55150;SDS011;41041;43.162;20.538;2023-03-25T08:26:28;10.27;;;3.67;;
55150;SDS011;41041;43.162;20.538;2023-03-25T08:28:55;12.90;;;3.90;;
55150;SDS011;41041;43.162;20.538;2023-03-25T08:31:25;13.13;;;3.50;;
55150;SDS011;41041;43.162;20.538;2023-03-25T08:33:55;10.13;;;4.00;;
55150;SDS011;41041;43.162;20.538;2023-03-25T08:36:21;8.30;;;3.80;;
55150;SDS011;41041;43.162;20.538;2023-03-25T08:38:48;9.63;;;3.38;;
55150;SDS011;41041;43.162;20.538;2023-03-25T08:41:14;12.60;;;3.55;;
55150;SDS011;41041;43.162;20.538;2023-03-25T08:43:43;10.52;;;4.32;;
55150;SDS011;41041;43.162;20.538;2023-03-25T08:46:15;22.85;;;4.15;;
55150;SDS011;41041;43.162;20.538;2023-03-25T08:48:41;15.93;;;4.05;;
55150;SDS011;41041;43.162;20.538;2023-03-25T08:51:08;11.25;;;3.10;;
55150;SDS011;41041;43.162;20.538;2023-03-25T08:53:35;10.73;;;3.28;;
55150;SDS011;41041;43.162;20.538;2023-03-25T08:56:01;8.77;;;2.70;;
55150;SDS011;41041;43.162;20.538;2023-03-25T09:00:57;10.43;;;3.03;;
55150;SDS011;41041;43.162;20.538;2023-03-25T09:03:23;5.65;;;2.92;;
55150;SDS011;41041;43.162;20.538;2023-03-25T09:08:35;11.20;;;3.10;;
55150;SDS011;41041;43.162;20.538;2023-03-25T09:11:01;5.90;;;2.75;;
55150;SDS011;41041;43.162;20.538;2023-03-25T09:13:29;20.05;;;3.45;;
55150;SDS011;41041;43.162;20.538;2023-03-25T09:15:56;14.00;;;3.30;;
55150;SDS011;41041;43.162;20.538;2023-03-25T09:18:22;18.85;;;3.17;;
55150;SDS011;41041;43.162;20.538;2023-03-25T09:21:00;12.20;;;2.88;;
55150;SDS011;41041;43.162;20.538;2023-03-25T09:23:25;12.10;;;2.92;;
55150;SDS011;41041;43.162;20.538;2023-03-25T09:25:52;6.93;;;2.80;;
55150;SDS011;41041;43.162;20.538;2023-03-25T09:28:19;20.23;;;3.00;;
55150;SDS011;41041;43.162;20.538;2023-03-25T09:30:49;14.57;;;2.85;;
55150;SDS011;41041;43.162;20.538;2023-03-25T09:33:15;8.85;;;2.72;;
55150;SDS011;41041;43.162;20.538;2023-03-25T09:35:50;10.38;;;2.70;;
55150;SDS011;41041;43.162;20.538;2023-03-25T09:38:15;11.80;;;2.60;;
55150;SDS011;41041;43.162;20.538;2023-03-25T09:40:41;7.68;;;2.20;;
55150;SDS011;41041;43.162;20.538;2023-03-25T09:46:18;6.97;;;2.45;;
55150;SDS011;41041;43.162;20.538;2023-03-25T09:51:17;12.32;;;3.33;;
55150;SDS011;41041;43.162;20.538;2023-03-25T09:56:44;17.55;;;3.13;;
55150;SDS011;41041;43.162;20.538;2023-03-25T10:01:49;7.03;;;2.53;;
55150;SDS011;41041;43.162;20.538;2023-03-25T10:07:34;8.95;;;2.70;;
55150;SDS011;41041;43.162;20.538;2023-03-25T10:27:05;5.18;;;2.40;;
55150;SDS011;41041;43.162;20.538;2023-03-25T10:29:43;6.85;;;2.30;;
55150;SDS011;41041;43.162;20.538;2023-03-25T10:35:56;17.70;;;1.88;;
55150;SDS011;41041;43.162;20.538;2023-03-25T10:38:24;12.82;;;1.80;;
55150;SDS011;41041;43.162;20.538;2023-03-25T10:40:51;13.02;;;2.00;;
55150;SDS011;41041;43.162;20.538;2023-03-25T10:45:59;7.57;;;1.90;;
55150;SDS011;41041;43.162;20.538;2023-03-25T10:48:36;7.05;;;1.80;;
55150;SDS011;41041;43.162;20.538;2023-03-25T10:51:13;12.00;;;1.90;;
55150;SDS011;41041;43.162;20.538;2023-03-25T10:53:47;4.13;;;1.60;;
55150;SDS011;41041;43.162;20.538;2023-03-25T11:01:42;6.05;;;1.73;;
55150;SDS011;41041;43.162;20.538;2023-03-25T11:04:12;9.52;;;1.88;;
55150;SDS011;41041;43.162;20.538;2023-03-25T11:06:43;8.32;;;2.15;;
55150;SDS011;41041;43.162;20.538;2023-03-25T11:09:12;8.23;;;2.40;;
55150;SDS011;41041;43.162;20.538;2023-03-25T11:11:40;11.77;;;2.25;;
55150;SDS011;41041;43.162;20.538;2023-03-25T11:14:07;11.50;;;2.88;;
55150;SDS011;41041;43.162;20.538;2023-03-25T11:16:34;58.08;;;4.03;;
55150;SDS011;41041;43.162;20.538;2023-03-25T11:19:06;35.08;;;4.70;;
55150;SDS011;41041;43.162;20.538;2023-03-25T11:24:13;19.27;;;3.33;;
55150;SDS011;41041;43.162;20.538;2023-03-25T11:26:41;7.82;;;1.50;;
55150;SDS011;41041;43.162;20.538;2023-03-25T11:29:14;18.25;;;2.85;;
55150;SDS011;41041;43.162;20.538;2023-03-25T11:31:42;22.20;;;2.45;;
55150;SDS011;41041;43.162;20.538;2023-03-25T11:36:37;45.85;;;4.20;;
55150;SDS011;41041;43.162;20.538;2023-03-25T11:39:13;163.93;;;8.85;;
55150;SDS011;41041;43.162;20.538;2023-03-25T11:41:47;12.70;;;1.90;;
55150;SDS011;41041;43.162;20.538;2023-03-25T11:47:13;15.77;;;2.53;;
55150;SDS011;41041;43.162;20.538;2023-03-25T11:49:51;22.08;;;4.55;;
55150;SDS011;41041;43.162;20.538;2023-03-25T11:55:41;3.85;;;1.20;;
55150;SDS011;41041;43.162;20.538;2023-03-25T11:58:14;6.30;;;1.40;;
55150;SDS011;41041;43.162;20.538;2023-03-25T12:00:47;3.97;;;1.20;;
55150;SDS011;41041;43.162;20.538;2023-03-25T12:03:19;27.25;;;1.98;;
55150;SDS011;41041;43.162;20.538;2023-03-25T12:06:10;2.47;;;0.98;;
55150;SDS011;41041;43.162;20.538;2023-03-25T12:08:49;19.88;;;1.75;;
55150;SDS011;41041;43.162;20.538;2023-03-25T12:11:38;13.32;;;1.50;;
55150;SDS011;41041;43.162;20.538;2023-03-25T12:16:47;7.57;;;1.50;;
55150;SDS011;41041;43.162;20.538;2023-03-25T12:22:24;9.38;;;3.83;;
55150;SDS011;41041;43.162;20.538;2023-03-25T12:33:38;5.13;;;1.15;;
55150;SDS011;41041;43.162;20.538;2023-03-25T12:50:59;3.45;;;1.15;;
55150;SDS011;41041;43.162;20.538;2023-03-25T12:56:33;13.27;;;1.73;;
55150;SDS011;41041;43.162;20.538;2023-03-25T13:07:44;44.22;;;3.22;;
55150;SDS011;41041;43.162;20.538;2023-03-25T13:10:19;36.92;;;2.80;;
55150;SDS011;41041;43.162;20.538;2023-03-25T13:12:50;6.95;;;1.42;;
55150;SDS011;41041;43.162;20.538;2023-03-25T13:15:34;7.00;;;1.73;;
55150;SDS011;41041;43.162;20.538;2023-03-25T13:18:13;147.93;;;10.35;;
55150;SDS011;41041;43.162;20.538;2023-03-25T13:20:47;52.83;;;7.45;;
55150;SDS011;41041;43.162;20.538;2023-03-25T13:23:38;3.72;;;1.40;;
55150;SDS011;41041;43.162;20.538;2023-03-25T13:26:07;46.20;;;3.38;;
55150;SDS011;41041;43.162;20.538;2023-03-25T13:28:46;3.15;;;1.55;;
55150;SDS011;41041;43.162;20.538;2023-03-25T13:31:21;9.60;;;3.33;;
55150;SDS011;41041;43.162;20.538;2023-03-25T13:37:13;3.80;;;1.20;;
55150;SDS011;41041;43.162;20.538;2023-03-25T13:43:08;24.40;;;2.40;;
55150;SDS011;41041;43.162;20.538;2023-03-25T13:51:23;6.63;;;2.30;;
55150;SDS011;41041;43.162;20.538;2023-03-25T13:53:57;8.02;;;2.30;;
55150;SDS011;41041;43.162;20.538;2023-03-25T13:59:21;31.77;;;2.42;;
55150;SDS011;41041;43.162;20.538;2023-03-25T14:13:11;23.33;;;3.70;;
55150;SDS011;41041;43.162;20.538;2023-03-25T14:16:01;11.25;;;2.50;;
55150;SDS011;41041;43.162;20.538;2023-03-25T14:18:31;48.47;;;3.83;;
55150;SDS011;41041;43.162;20.538;2023-03-25T14:21:14;19.77;;;2.60;;
55150;SDS011;41041;43.162;20.538;2023-03-25T14:23:47;3.60;;;1.70;;
55150;SDS011;41041;43.162;20.538;2023-03-25T14:26:24;175.32;;;9.85;;
55150;SDS011;41041;43.162;20.538;2023-03-25T14:28:51;132.23;;;8.55;;
55150;SDS011;41041;43.162;20.538;2023-03-25T14:44:33;8.35;;;2.10;;
55150;SDS011;41041;43.162;20.538;2023-03-25T14:49:52;174.25;;;8.55;;
55150;SDS011;41041;43.162;20.538;2023-03-25T14:52:54;82.95;;;5.75;;
55150;SDS011;41041;43.162;20.538;2023-03-25T14:55:26;7.28;;;1.73;;
55150;SDS011;41041;43.162;20.538;2023-03-25T14:58:39;71.03;;;4.78;;
55150;SDS011;41041;43.162;20.538;2023-03-25T15:04:05;16.67;;;2.55;;
55150;SDS011;41041;43.162;20.538;2023-03-25T15:06:47;9.82;;;1.88;;
55150;SDS011;41041;43.162;20.538;2023-03-25T15:09:13;50.08;;;4.38;;
55150;SDS011;41041;43.162;20.538;2023-03-25T15:11:51;52.20;;;4.45;;
55150;SDS011;41041;43.162;20.538;2023-03-25T15:14:43;8.70;;;2.20;;
55150;SDS011;41041;43.162;20.538;2023-03-25T15:17:09;18.05;;;2.22;;
55150;SDS011;41041;43.162;20.538;2023-03-25T15:20:37;6.07;;;2.20;;
55150;SDS011;41041;43.162;20.538;2023-03-25T15:22:36;8.30;;;2.10;;
55150;SDS011;41041;43.162;20.538;2023-03-25T15:25:04;57.20;;;3.85;;
55150;SDS011;41041;43.162;20.538;2023-03-25T15:27:54;40.75;;;4.10;;
55150;SDS011;41041;43.162;20.538;2023-03-25T15:52:37;23.48;;;3.28;;
55150;SDS011;41041;43.162;20.538;2023-03-25T15:55:35;36.60;;;3.63;;
55150;SDS011;41041;43.162;20.538;2023-03-25T15:58:12;76.82;;;4.38;;
55150;SDS011;41041;43.162;20.538;2023-03-25T16:00:56;8.98;;;2.20;;
55150;SDS011;41041;43.162;20.538;2023-03-25T16:03:32;14.70;;;2.20;;
55150;SDS011;41041;43.162;20.538;2023-03-25T16:05:59;6.13;;;2.33;;
55150;SDS011;41041;43.162;20.538;2023-03-25T16:11:51;6.00;;;2.58;;
55150;SDS011;41041;43.162;20.538;2023-03-25T16:14:27;16.02;;;2.50;;
55150;SDS011;41041;43.162;20.538;2023-03-25T16:16:56;7.03;;;2.42;;
55150;SDS011;41041;43.162;20.538;2023-03-25T16:22:42;7.18;;;2.50;;
55150;SDS011;41041;43.162;20.538;2023-03-25T16:28:02;16.60;;;2.88;;
55150;SDS011;41041;43.162;20.538;2023-03-25T16:30:34;8.23;;;2.17;;
55150;SDS011;41041;43.162;20.538;2023-03-25T16:33:20;32.10;;;3.17;;
55150;SDS011;41041;43.162;20.538;2023-03-25T16:38:19;6.80;;;2.80;;
55150;SDS011;41041;43.162;20.538;2023-03-25T16:43:41;6.80;;;3.80;;
55150;SDS011;41041;43.162;20.538;2023-03-25T16:46:08;13.82;;;4.30;;
55150;SDS011;41041;43.162;20.538;2023-03-25T16:48:36;6.07;;;2.50;;
55150;SDS011;41041;43.162;20.538;2023-03-25T16:53:53;6.18;;;2.70;;
55150;SDS011;41041;43.162;20.538;2023-03-25T16:56:27;15.68;;;2.70;;
55150;SDS011;41041;43.162;20.538;2023-03-25T17:01:24;21.83;;;8.43;;
55150;SDS011;41041;43.162;20.538;2023-03-25T17:03:50;30.00;;;11.55;;
55150;SDS011;41041;43.162;20.538;2023-03-25T17:06:22;7.75;;;4.03;;
55150;SDS011;41041;43.162;20.538;2023-03-25T17:08:55;47.03;;;6.18;;
55150;SDS011;41041;43.162;20.538;2023-03-25T17:11:23;66.75;;;10.20;;
55150;SDS011;41041;43.162;20.538;2023-03-25T17:13:51;29.67;;;5.00;;
55150;SDS011;41041;43.162;20.538;2023-03-25T17:19:44;12.30;;;4.43;;
55150;SDS011;41041;43.162;20.538;2023-03-25T17:24:54;6.53;;;3.72;;
55150;SDS011;41041;43.162;20.538;2023-03-25T17:30:18;10.00;;;4.40;;
55150;SDS011;41041;43.162;20.538;2023-03-25T17:33:12;11.77;;;4.40;;
55150;SDS011;41041;43.162;20.538;2023-03-25T17:35:43;17.00;;;4.65;;
55150;SDS011;41041;43.162;20.538;2023-03-25T17:38:26;49.20;;;6.35;;
55150;SDS011;41041;43.162;20.538;2023-03-25T17:43:57;141.13;;;12.77;;
55150;SDS011;41041;43.162;20.538;2023-03-25T17:46:25;55.13;;;20.83;;
55150;SDS011;41041;43.162;20.538;2023-03-25T17:48:52;42.63;;;9.25;;
55150;SDS011;41041;43.162;20.538;2023-03-25T17:51:26;73.25;;;30.75;;
55150;SDS011;41041;43.162;20.538;2023-03-25T17:54:00;39.08;;;6.60;;
55150;SDS011;41041;43.162;20.538;2023-03-25T17:56:26;25.92;;;8.15;;
55150;SDS011;41041;43.162;20.538;2023-03-25T18:02:22;69.13;;;14.88;;
55150;SDS011;41041;43.162;20.538;2023-03-25T18:04:48;96.32;;;8.10;;
55150;SDS011;41041;43.162;20.538;2023-03-25T18:07:14;220.50;;;30.92;;
55150;SDS011;41041;43.162;20.538;2023-03-25T18:09:40;116.85;;;10.20;;
55150;SDS011;41041;43.162;20.538;2023-03-25T18:12:06;43.42;;;6.63;;
55150;SDS011;41041;43.162;20.538;2023-03-25T18:14:32;38.33;;;10.20;;
55150;SDS011;41041;43.162;20.538;2023-03-25T18:16:59;37.28;;;7.00;;
55150;SDS011;41041;43.162;20.538;2023-03-25T18:19:26;22.15;;;5.35;;
55150;SDS011;41041;43.162;20.538;2023-03-25T18:21:55;12.73;;;5.40;;
55150;SDS011;41041;43.162;20.538;2023-03-25T18:24:21;17.70;;;5.25;;
55150;SDS011;41041;43.162;20.538;2023-03-25T18:26:47;14.20;;;5.07;;
55150;SDS011;41041;43.162;20.538;2023-03-25T18:29:17;21.13;;;4.40;;
55150;SDS011;41041;43.162;20.538;2023-03-25T18:31:43;166.50;;;9.88;;
55150;SDS011;41041;43.162;20.538;2023-03-25T18:34:10;55.75;;;5.13;;
55150;SDS011;41041;43.162;20.538;2023-03-25T18:36:37;30.08;;;4.88;;
55150;SDS011;41041;43.162;20.538;2023-03-25T18:39:03;18.55;;;4.22;;
55150;SDS011;41041;43.162;20.538;2023-03-25T18:41:32;10.68;;;4.10;;
55150;SDS011;41041;43.162;20.538;2023-03-25T18:43:58;16.75;;;4.30;;
55150;SDS011;41041;43.162;20.538;2023-03-25T18:46:24;13.02;;;4.22;;
55150;SDS011;41041;43.162;20.538;2023-03-25T18:48:50;12.57;;;4.85;;
55150;SDS011;41041;43.162;20.538;2023-03-25T18:51:16;12.50;;;4.75;;
55150;SDS011;41041;43.162;20.538;2023-03-25T18:53:42;10.05;;;4.47;;
55150;SDS011;41041;43.162;20.538;2023-03-25T18:56:08;12.48;;;5.78;;
55150;SDS011;41041;43.162;20.538;2023-03-25T18:58:35;16.05;;;4.90;;
55150;SDS011;41041;43.162;20.538;2023-03-25T19:01:02;17.33;;;4.85;;
55150;SDS011;41041;43.162;20.538;2023-03-25T19:03:28;13.35;;;5.22;;
55150;SDS011;41041;43.162;20.538;2023-03-25T19:05:58;31.27;;;4.70;;
55150;SDS011;41041;43.162;20.538;2023-03-25T19:08:25;14.38;;;4.68;;
55150;SDS011;41041;43.162;20.538;2023-03-25T19:13:43;21.15;;;4.82;;
55150;SDS011;41041;43.162;20.538;2023-03-25T19:16:09;19.15;;;4.93;;
55150;SDS011;41041;43.162;20.538;2023-03-25T19:18:36;23.02;;;5.72;;
55150;SDS011;41041;43.162;20.538;2023-03-25T19:21:02;9.02;;;4.90;;
55150;SDS011;41041;43.162;20.538;2023-03-25T19:23:27;24.70;;;5.90;;